F/V Cote D'ambre — FPEY — position and weather

sailwx.info

Track history (hours):
 
Tides and Currents Weather Stations Pressure Air Temp Water Temp Dewpoint Dewpoint Depression Visibility Wind Speed Wind Dir Waves Ship Positions

F/V Cote D'ambre

Last reported at 2015-Aug-26 17:09 UTC. Time now 2015-Aug-29 23:39 UTC.
Position N 47°44' W 003°22'.

Length 16 m; draft 4 m.

Type: Fishing. MMSI: 227128800.

Date/timePositionNaut miles runAvg speedWind from/ knotsBaromVisibWave heightAir tempDewpointWater temp
2015-Aug-26 17:09N 47°44' W 003°22'0 0.0
2015-Aug-26 16:33N 47°44' W 003°22'0 0.0
2015-Aug-26 15:33N 47°44' W 003°22'0 0.0
2015-Aug-24 13:31N 47°44' W 003°22'6 6.0
2015-Aug-24 12:33N 47°40' W 003°29'5 5.4
2015-Aug-24 11:33N 47°35' W 003°32'6 5.9
2015-Aug-24 10:33N 47°29' W 003°29'5 5.3
2015-Aug-24 09:33N 47°24' W 003°27'2 1.9
2015-Aug-24 08:33N 47°23' W 003°28'3 2.9
2015-Aug-24 07:33N 47°25' W 003°28'3 3.3
2015-Aug-24 06:33N 47°28' W 003°31'3 3.1
2015-Aug-24 05:33N 47°31' W 003°31'4 3.6
2015-Aug-24 04:33N 47°34' W 003°27'5 4.9
2015-Aug-24 03:33N 47°37' W 003°22'6 6.1
2015-Aug-24 02:32N 47°44' W 003°22'0 0.2
2015-Aug-24 01:32N 47°44' W 003°22'5 5.0
2015-Aug-24 00:33N 47°39' W 003°22'7 7.1
2015-Aug-23 23:33N 47°32' W 003°23'7 7.1
2015-Aug-23 22:33N 47°25' W 003°25'7 6.8
2015-Aug-23 21:33N 47°18' W 003°26'7 6.7
2015-Aug-23 20:29N 47°11' W 003°27'17 0.5
2015-Aug-22 08:27N 46°54' W 003°24'3 3.5
2015-Aug-22 07:33N 46°57' W 003°24'7 6.8
2015-Aug-22 06:33N 47°04' W 003°24'8 8.3
2015-Aug-22 05:33N 47°12' W 003°23'8 8.5
2015-Aug-22 04:34N 47°21' W 003°23'8 8.1
2015-Aug-22 03:34N 47°29' W 003°23'9 8.6
2015-Aug-22 02:34N 47°37' W 003°22'6 6.4
2015-Aug-22 01:34N 47°44' W 003°22'0 0.2
2015-Aug-22 00:33N 47°44' W 003°22'5 5.2
2015-Aug-21 23:33N 47°39' W 003°22'8 8.4
2015-Aug-21 22:33N 47°30' W 003°22'8 8.4
2015-Aug-21 21:33N 47°22' W 003°22'8 8.2
2015-Aug-21 20:33N 47°14' W 003°22'4 3.6
2015-Aug-21 19:33N 47°10' W 003°24'3 3.1
2015-Aug-21 18:33N 47°07' W 003°24'5 4.8
2015-Aug-21 17:33N 47°02' W 003°23'6 6.1
2015-Aug-21 16:33N 46°56' W 003°21'3 3.5
2015-Aug-21 15:33N 46°53' W 003°21'3 3.1
2015-Aug-21 14:33N 46°50' W 003°21'4 3.4
2015-Aug-21 13:29N 46°49' W 003°16'4 2.1
2015-Aug-21 11:33N 46°51' W 003°22'10 1.3
2015-Aug-21 03:32N 46°46' W 003°09'3 3.0
2015-Aug-21 02:33N 46°44' W 003°11'3 3.0
2015-Aug-21 01:32N 46°46' W 003°15'3 2.8
2015-Aug-21 00:33N 46°46' W 003°11'3 3.1
2015-Aug-20 23:28N 46°44' W 003°06'3 2.8
2015-Aug-20 22:32N 46°42' W 003°08'3 3.3
2015-Aug-20 21:33N 46°44' W 003°12'4 3.7
2015-Aug-20 20:31N 46°48' W 003°11'3 3.0
2015-Aug-20 19:32N 46°50' W 003°13'3 2.9
2015-Aug-20 18:32N 46°51' W 003°17'4 3.5
2015-Aug-20 17:24N 46°51' W 003°23'2 2.1
2015-Aug-20 16:28N 46°52' W 003°26'2 2.4
2015-Aug-20 15:33N 46°53' W 003°28'3 2.2
2015-Aug-20 14:10N 46°50' W 003°26'2 2.5
2015-Aug-20 13:33N 46°50' W 003°24'3 2.2
2015-Aug-20 12:14N 46°53' W 003°26'3 2.6
2015-Aug-20 11:12N 46°52' W 003°30'2 2.3
2015-Aug-20 10:10N 46°50' W 003°26'20 4.2
2015-Aug-20 05:29N 47°10' W 003°25'8 8.2
2015-Aug-20 04:33N 47°18' W 003°24'8 7.9
2015-Aug-20 03:33N 47°26' W 003°24'8 8.0
2015-Aug-20 02:33N 47°33' W 003°23'8 8.2
2015-Aug-20 01:33N 47°42' W 003°22'2 2.0
2015-Aug-20 00:31N 47°44' W 003°22'0 0.0
2015-Aug-19 23:34N 47°44' W 003°22'7 7.4
2015-Aug-19 22:33N 47°36' W 003°22'8 8.4
2015-Aug-19 21:33N 47°28' W 003°23'8 8.2
2015-Aug-19 20:34N 47°20' W 003°23'8 8.2
2015-Aug-19 19:33N 47°11' W 003°23'9 8.6
2015-Aug-19 18:33N 47°03' W 003°24'15 1.6
2015-Aug-19 09:14N 46°48' W 003°27'11 1.1
2015-Aug-18 23:24N 46°59' W 003°31'3 1.2
2015-Aug-18 20:33N 47°02' W 003°30'2 1.8
2015-Aug-18 19:32N 47°00' W 003°31'3 3.0
2015-Aug-18 18:29N 46°57' W 003°30'3 3.0
2015-Aug-18 17:33N 46°54' W 003°29'3 3.1
2015-Aug-18 16:33N 46°51' W 003°29'3 2.6
2015-Aug-18 15:23N 46°49' W 003°26'2 2.6
2015-Aug-18 14:33N 46°48' W 003°29'3 3.3
2015-Aug-18 13:33N 46°52' W 003°30'2 1.8
2015-Aug-18 12:32N 46°53' W 003°28'3 2.8
2015-Aug-18 11:29N 46°50' W 003°27'4 1.3
2015-Aug-18 08:06N 46°54' W 003°29'5 3.4
2015-Aug-18 06:32N 46°59' W 003°27'9 4.5
2015-Aug-18 04:30N 47°08' W 003°28'3 8.1
2015-Aug-18 04:08N 47°11' W 003°28'5 8.1
2015-Aug-18 03:33N 47°16' W 003°26'8 7.6
2015-Aug-18 02:33N 47°24' W 003°25'8 7.8
2015-Aug-18 01:33N 47°31' W 003°23'8 8.0
2015-Aug-18 00:33N 47°39' W 003°23'  
Track history (hours):
 
Tides and Currents Weather Stations Pressure Air Temp Water Temp Dewpoint Dewpoint Depression Visibility Wind Speed Wind Dir Waves Ship Positions

F/V Cote D'ambre

Last reported at 2015-Aug-26 17:09 UTC. Time now 2015-Aug-29 23:39 UTC.
Position N 47°44' W 003°22'.

Length 16 m; draft 4 m.

Type: Fishing. MMSI: 227128800.

Date/timePositionNaut miles runAvg speedWind from/ knotsBaromVisibWave heightAir tempDewpointWater temp
2015-Aug-26 17:09N 47°44' W 003°22'0 0.0
2015-Aug-26 16:33N 47°44' W 003°22'0 0.0
2015-Aug-26 15:33N 47°44' W 003°22'0 0.0
2015-Aug-24 13:31N 47°44' W 003°22'6 6.0
2015-Aug-24 12:33N 47°40' W 003°29'5 5.4
2015-Aug-24 11:33N 47°35' W 003°32'6 5.9
2015-Aug-24 10:33N 47°29' W 003°29'5 5.3
2015-Aug-24 09:33N 47°24' W 003°27'2 1.9
2015-Aug-24 08:33N 47°23' W 003°28'3 2.9
2015-Aug-24 07:33N 47°25' W 003°28'3 3.3
2015-Aug-24 06:33N 47°28' W 003°31'3 3.1
2015-Aug-24 05:33N 47°31' W 003°31'4 3.6
2015-Aug-24 04:33N 47°34' W 003°27'5 4.9
2015-Aug-24 03:33N 47°37' W 003°22'6 6.1
2015-Aug-24 02:32N 47°44' W 003°22'0 0.2
2015-Aug-24 01:32N 47°44' W 003°22'5 5.0
2015-Aug-24 00:33N 47°39' W 003°22'7 7.1
2015-Aug-23 23:33N 47°32' W 003°23'7 7.1
2015-Aug-23 22:33N 47°25' W 003°25'7 6.8
2015-Aug-23 21:33N 47°18' W 003°26'7 6.7
2015-Aug-23 20:29N 47°11' W 003°27'17 0.5
2015-Aug-22 08:27N 46°54' W 003°24'3 3.5
2015-Aug-22 07:33N 46°57' W 003°24'7 6.8
2015-Aug-22 06:33N 47°04' W 003°24'8 8.3
2015-Aug-22 05:33N 47°12' W 003°23'8 8.5
2015-Aug-22 04:34N 47°21' W 003°23'8 8.1
2015-Aug-22 03:34N 47°29' W 003°23'9 8.6
2015-Aug-22 02:34N 47°37' W 003°22'6 6.4
2015-Aug-22 01:34N 47°44' W 003°22'0 0.2
2015-Aug-22 00:33N 47°44' W 003°22'5 5.2
2015-Aug-21 23:33N 47°39' W 003°22'8 8.4
2015-Aug-21 22:33N 47°30' W 003°22'8 8.4
2015-Aug-21 21:33N 47°22' W 003°22'8 8.2
2015-Aug-21 20:33N 47°14' W 003°22'4 3.6
2015-Aug-21 19:33N 47°10' W 003°24'3 3.1
2015-Aug-21 18:33N 47°07' W 003°24'5 4.8
2015-Aug-21 17:33N 47°02' W 003°23'6 6.1
2015-Aug-21 16:33N 46°56' W 003°21'3 3.5
2015-Aug-21 15:33N 46°53' W 003°21'3 3.1
2015-Aug-21 14:33N 46°50' W 003°21'4 3.4
2015-Aug-21 13:29N 46°49' W 003°16'4 2.1
2015-Aug-21 11:33N 46°51' W 003°22'10 1.3
2015-Aug-21 03:32N 46°46' W 003°09'3 3.0
2015-Aug-21 02:33N 46°44' W 003°11'3 3.0
2015-Aug-21 01:32N 46°46' W 003°15'3 2.8
2015-Aug-21 00:33N 46°46' W 003°11'3 3.1
2015-Aug-20 23:28N 46°44' W 003°06'3 2.8
2015-Aug-20 22:32N 46°42' W 003°08'3 3.3
2015-Aug-20 21:33N 46°44' W 003°12'4 3.7
2015-Aug-20 20:31N 46°48' W 003°11'3 3.0
2015-Aug-20 19:32N 46°50' W 003°13'3 2.9
2015-Aug-20 18:32N 46°51' W 003°17'4 3.5
2015-Aug-20 17:24N 46°51' W 003°23'2 2.1
2015-Aug-20 16:28N 46°52' W 003°26'2 2.4
2015-Aug-20 15:33N 46°53' W 003°28'3 2.2
2015-Aug-20 14:10N 46°50' W 003°26'2 2.5
2015-Aug-20 13:33N 46°50' W 003°24'3 2.2
2015-Aug-20 12:14N 46°53' W 003°26'3 2.6
2015-Aug-20 11:12N 46°52' W 003°30'2 2.3
2015-Aug-20 10:10N 46°50' W 003°26'20 4.2
2015-Aug-20 05:29N 47°10' W 003°25'8 8.2
2015-Aug-20 04:33N 47°18' W 003°24'8 7.9
2015-Aug-20 03:33N 47°26' W 003°24'8 8.0
2015-Aug-20 02:33N 47°33' W 003°23'8 8.2
2015-Aug-20 01:33N 47°42' W 003°22'2 2.0
2015-Aug-20 00:31N 47°44' W 003°22'0 0.0
2015-Aug-19 23:34N 47°44' W 003°22'7 7.4
2015-Aug-19 22:33N 47°36' W 003°22'8 8.4
2015-Aug-19 21:33N 47°28' W 003°23'8 8.2
2015-Aug-19 20:34N 47°20' W 003°23'8 8.2
2015-Aug-19 19:33N 47°11' W 003°23'9 8.6
2015-Aug-19 18:33N 47°03' W 003°24'15 1.6
2015-Aug-19 09:14N 46°48' W 003°27'11 1.1
2015-Aug-18 23:24N 46°59' W 003°31'3 1.2
2015-Aug-18 20:33N 47°02' W 003°30'2 1.8
2015-Aug-18 19:32N 47°00' W 003°31'3 3.0
2015-Aug-18 18:29N 46°57' W 003°30'3 3.0
2015-Aug-18 17:33N 46°54' W 003°29'3 3.1
2015-Aug-18 16:33N 46°51' W 003°29'3 2.6
2015-Aug-18 15:23N 46°49' W 003°26'2 2.6
2015-Aug-18 14:33N 46°48' W 003°29'3 3.3
2015-Aug-18 13:33N 46°52' W 003°30'2 1.8
2015-Aug-18 12:32N 46°53' W 003°28'3 2.8
2015-Aug-18 11:29N 46°50' W 003°27'4 1.3
2015-Aug-18 08:06N 46°54' W 003°29'5 3.4
2015-Aug-18 06:32N 46°59' W 003°27'9 4.5
2015-Aug-18 04:30N 47°08' W 003°28'3 8.1
2015-Aug-18 04:08N 47°11' W 003°28'5 8.1
2015-Aug-18 03:33N 47°16' W 003°26'8 7.6
2015-Aug-18 02:33N 47°24' W 003°25'8 7.8
2015-Aug-18 01:33N 47°31' W 003°23'8 8.0
2015-Aug-18 00:33N 47°39' W 003°23'  

Dump ship's entire track history